Heincke — DBCK — position and weather

sailwx.info

Track history (hours):
 
Tides and Currents Weather Stations Pressure Air Temp Water Temp Dewpoint Dewpoint Depression Visibility Wind Speed Wind Dir Waves Ship Positions

Oceanographic research ship Heincke (Germany)

Detailed information on ship capabilities available from University of Delaware's Ocean Information Center and ARCUS's ALIAS (Arctic Logistics Information and Support) project.

Last reported at 2017-Mar-26 22:33 UTC. Time now 2017-Mar-26 22:59 UTC.
Position N 54°53' E 007°01'.

Length 54.6 m; beam 12.5 m; draft 4 m.

Type: Other ship. MMSI: 211208720.

Date/timePositionNaut miles runAvg speedWind from/ knotsBaromVisibWave heightAir tempDewpointWater temp
2017-Mar-26 22:33N 54°53' E 007°01'2 2.9
2017-Mar-26 22:00N 54°54' E 007°00'1 2.8 330 / 41028.1 5.1 4.6 5.6
2017-Mar-26 21:33N 54°53' E 007°01'1 2.1
2017-Mar-26 21:00N 54°54' E 007°00'1 1.3 1028.2 5.6 5.0 5.7
2017-Mar-26 20:33N 54°53' E 006°60'1 1.1
2017-Mar-26 20:00N 54°54' E 007°00'1 2.4 1028.1 5.7 4.9 5.8
2017-Mar-26 19:33N 54°54' E 006°58'2 4.3
2017-Mar-26 19:00N 54°54' E 006°54'2 4.4 350 / 41027.7 5.8 5.2 5.8
2017-Mar-26 18:33N 54°55' E 006°57'2 3.4
2017-Mar-26 18:00N 54°54' E 006°54'2 4.8 1027.5 5.9 5.8 5.9
2017-Mar-26 17:33N 54°56' E 006°56'2 3.7
2017-Mar-26 17:00N 54°54' E 006°54'3 5.9 010 / 41027.4 5.9 5.8 5.9
2017-Mar-26 16:33N 54°56' E 006°55'3 4.5
2017-Mar-26 16:00N 54°54' E 006°54'3 6.7 340 / 41027.5 6.1 6.0 5.8
2017-Mar-26 15:33N 54°57' E 006°55'3 5.2
2017-Mar-26 15:00N 54°54' E 006°54'1 1.1 300 / 41027.9 6.0 5.8 5.8
2017-Mar-26 14:16N 54°54' E 006°53'1 3.0
2017-Mar-26 14:00N 54°54' E 006°54'1 1.5 250 / 61028.2 5.8 5.6 5.7
2017-Mar-26 13:34N 54°54' E 006°53'1 1.1
2017-Mar-26 13:00N 54°54' E 006°54'1 2.8 250 / 41028.2 5.9 5.6 5.9
2017-Mar-26 12:33N 54°55' E 006°52'1 2.3
2017-Mar-26 12:00N 54°54' E 006°54'1 2.4 270 / 21028.3 5.8 5.1 5.7
2017-Mar-26 11:33N 54°55' E 006°53'1 1.9
2017-Mar-26 11:00N 54°54' E 006°54'1 1.6 260 / 21028.2 5.6 5.1 5.7
2017-Mar-26 10:33N 54°54' E 006°53'1 1.2
2017-Mar-26 10:00N 54°54' E 006°54'1 1.5 1028.2 6.1 5.6 5.7
2017-Mar-26 09:33N 54°54' E 006°53'1 1.2
2017-Mar-26 09:00N 54°54' E 006°54'0 1.1 360 / 81028.2 5.4 5.1 5.7
2017-Mar-26 08:33N 54°54' E 006°53'0 0.9
2017-Mar-26 08:00N 54°54' E 006°54'3 6.2 030 / 61027.9 5.5 4.3 5.5
2017-Mar-26 07:30N 54°51' E 006°56'3 6.0
2017-Mar-26 07:00N 54°54' E 006°54'3 7.4 050 / 61027.8 5.4 3.8 5.5
2017-Mar-26 06:33N 54°51' E 006°56'3 5.7
2017-Mar-26 06:00N 54°48' E 006°54'3 6.1 020 / 121027.5 5.4 4.5 5.5
2017-Mar-26 05:33N 54°50' E 006°57'3 4.7
2017-Mar-26 05:00N 54°48' E 006°54'2 3.9 350 / 61027.1 5.6 5.6 5.5
2017-Mar-26 04:33N 54°49' E 006°56'2 3.0
2017-Mar-26 04:00N 54°48' E 006°54'2 4.1 350 / 81027.3 5.8 5.4 5.6
2017-Mar-26 03:33N 54°47' E 006°57'2 3.9
2017-Mar-26 03:00N 54°48' E 007°00'2 3.8 350 / 101027.6 5.9 5.4 5.6
2017-Mar-26 02:33N 54°48' E 006°57'2 3.0
2017-Mar-26 02:00N 54°48' E 007°00'1 2.6 340 / 81027.8 5.9 5.3 5.6
2017-Mar-26 01:32N 54°48' E 006°58'1 2.2
2017-Mar-26 01:00N 54°48' E 007°00'1 1.6 340 / 81027.9 6.0 5.0 5.6
2017-Mar-26 00:29N 54°48' E 006°59'1 1.6
2017-Mar-26 00:00N 54°48' E 007°00'1 1.1 330 / 101028.2 6.1 5.0 5.6
2017-Mar-25 23:32N 54°48' E 006°59'1 1.0
2017-Mar-25 23:00N 54°48' E 007°00'0 1.0 330 / 121028.6 6.3 5.0 5.6
2017-Mar-25 22:33N 54°48' E 006°59'0 0.8
2017-Mar-25 22:00N 54°48' E 007°00'1 1.9 330 / 121028.9 6.2 5.1 5.5
2017-Mar-25 21:33N 54°49' E 006°59'1 1.5
2017-Mar-25 21:00N 54°48' E 007°00'2 3.6 330 / 81029.2 6.1 5.2 5.6
2017-Mar-25 20:33N 54°49' E 006°59'2 2.8
2017-Mar-25 20:00N 54°48' E 007°00'3 5.3 330 / 81029.4 6.2 5.3 5.6
2017-Mar-25 19:28N 54°50' E 006°57'4 8.7
2017-Mar-25 19:00N 54°54' E 006°54'3 7.0 320 / 101029.0 6.2 5.4 5.7
2017-Mar-25 18:33N 54°51' E 006°56'3 5.9
2017-Mar-25 18:00N 54°48' E 006°54'3 7.4 320 / 121029.1 6.3 5.4 5.8
2017-Mar-25 17:33N 54°51' E 006°56'3 5.7
2017-Mar-25 17:00N 54°48' E 006°54'3 7.4 320 / 101029.0 6.2 5.4 5.8
2017-Mar-25 16:33N 54°51' E 006°56'3 5.7
2017-Mar-25 16:00N 54°48' E 006°54'3 7.5 310 / 101029.8 6.2 5.4 5.8
2017-Mar-25 15:33N 54°51' E 006°57'3 6.0
2017-Mar-25 15:00N 54°48' E 007°00'3 6.1 320 / 81030.4 6.1 5.4 5.7
2017-Mar-25 14:33N 54°50' E 006°58'1017.0
2017-Mar-25 14:00N 54°42' E 007°06'2 4.7 320 / 121030.9 6.0 5.1 5.5
2017-Mar-25 13:33N 54°42' E 007°10'813.8
2017-Mar-25 13:00N 54°36' E 007°18'2 5.2 310 / 121031.9 5.9 4.9 5.5
2017-Mar-25 12:33N 54°34' E 007°20'712.4
2017-Mar-25 12:00N 54°30' E 007°30'7 6.9 310 / 121032.3 6.0 4.6 5.7
2017-Mar-25 11:00N 54°24' E 007°36'3 3.5 320 / 121033.0 6.0 4.4 5.7
2017-Mar-25 10:00N 54°24' E 007°30'1 1.0 310 / 121033.2 5.8 4.5 5.4
2017-Mar-25 09:22N 54°24' E 007°29'1 1.7
2017-Mar-25 09:00N 54°24' E 007°30'2 5.1 300 / 141032.7 5.8 4.1 5.5
2017-Mar-25 08:33N 54°23' E 007°33'2 3.4
2017-Mar-25 08:00N 54°24' E 007°36'2 3.8 310 / 121033.0 5.6 4.8 5.5
2017-Mar-25 07:33N 54°23' E 007°34'2 2.9
2017-Mar-25 07:00N 54°24' E 007°36'2 3.6 300 / 101033.0 5.5 4.6 5.6
2017-Mar-25 06:33N 54°23' E 007°37'2 2.9
2017-Mar-25 06:00N 54°24' E 007°36'2 4.8 290 / 101033.0 5.3 4.7 5.6
2017-Mar-25 05:33N 54°22' E 007°37'4 7.1
2017-Mar-25 05:00N 54°18' E 007°36'3 5.8 290 / 101033.2 5.3 4.5 5.6
2017-Mar-25 04:33N 54°21' E 007°36'3 4.7
2017-Mar-25 04:00N 54°18' E 007°36'1 3.2 280 / 81033.4 5.1 4.4 5.5
2017-Mar-25 03:33N 54°19' E 007°35'1 2.4
2017-Mar-25 03:00N 54°18' E 007°36'1 2.7 330 / 61034.2 5.2 4.3 5.5
2017-Mar-25 02:33N 54°19' E 007°35'1 2.1
2017-Mar-25 02:00N 54°18' E 007°36'1 3.3 350 / 81034.5 5.3 4.3 5.6
2017-Mar-25 01:33N 54°19' E 007°36'1 2.6
2017-Mar-25 01:00N 54°18' E 007°36'2 4.3 320 / 81034.7 5.3 4.2 5.7
2017-Mar-25 00:33N 54°20' E 007°38'611.1
2017-Mar-25 00:00N 54°18' E 007°48'2 3.5 350 / 41034.5 5.4 3.7 5.7
2017-Mar-24 23:33N 54°19' E 007°46'5 8.1
2017-Mar-24 23:00N 54°18' E 007°54'1 2.1 340 / 41034.5 5.5 3.5 5.8
2017-Mar-24 22:34N 54°19' E 007°55'3 5.1
2017-Mar-24 22:00N 54°18' E 008°00'1 3.1 350 / 81034.6 5.6 3.3 6.4
2017-Mar-24 21:31N 54°17' E 007°60'5 8.6
2017-Mar-24 21:00N 54°12' E 008°00'1 2.2 350 / 101034.4 5.7 2.9 6.1
2017-Mar-24 20:33N 54°13' E 008°01'1 1.7
2017-Mar-24 20:00N 54°12' E 008°00'4 8.6 360 / 81034.3 6.0 1.3 5.6
2017-Mar-24 19:32N 54°09' E 008°03'3 5.6
2017-Mar-24 19:00N 54°06' E 008°06'1 3.3 010 / 121034.1 5.9 2.2 5.7
2017-Mar-24 18:33N 54°05' E 008°05'5 8.7
2017-Mar-24 18:00N 54°00' E 008°06'3 6.9 010 / 121033.7 6.0 2.4 5.7
2017-Mar-24 17:33N 54°03' E 008°05'3 5.5
2017-Mar-24 17:00N 54°00' E 008°06'7 7.1 010 / 101033.8 6.4 4.1 5.8
2017-Mar-24 16:00N 54°00' E 007°54'3 5.5 010 / 81033.8 6.2 4.4 6.5
2017-Mar-24 15:31N 54°01' E 007°50'1 2.7
2017-Mar-24 15:00N 54°00' E 007°48'1 1.6 010 / 81034.2 6.1 4.3 6.8
2017-Mar-24 14:31N 54°00' E 007°49'1 1.4
2017-Mar-24 14:00N 54°00' E 007°48'5 6.4 360 / 81034.2 6.2 4.6 7.0
2017-Mar-24 13:16N 53°57' E 007°54'517.0
2017-Mar-24 13:00N 53°54' E 008°00'3 6.2 360 / 21033.9 6.0 4.1 6.4
2017-Mar-24 12:33N 53°53' E 008°05'712.4
2017-Mar-24 12:00N 53°48' E 008°12'4 9.3 360 / 41033.6 6.6 4.4 7.1
2017-Mar-24 11:33N 53°44' E 008°15'1221.8
2017-Mar-24 11:00N 53°36' E 008°30'1 1.9 080 / 61032.9 9.3-2.7 7.2
2017-Mar-24 10:33N 53°37' E 008°30'813.7
2017-Mar-24 10:00N 53°30' E 008°36'2 4.7 100 / 81032.3 9.0-1.9 7.4
2017-Mar-24 09:33N 53°32' E 008°35'2 3.6
2017-Mar-24 09:00N 53°30' E 008°36'2 3.6 110 / 61032.3 7.1-0.8 7.4
2017-Mar-24 08:33N 53°31' E 008°35'2 2.7
2017-Mar-24 08:00N 53°30' E 008°36'2 3.6 070 / 61031.8 5.2 0.4 7.4
2017-Mar-24 07:33N 53°31' E 008°35'2 2.7
2017-Mar-24 07:00N 53°30' E 008°36'2 3.5 070 / 41031.3 3.7 0.1 7.4
2017-Mar-24 06:33N 53°31' E 008°35'2 2.8
2017-Mar-24 06:00N 53°30' E 008°36'2 3.5 060 / 41030.9 2.6 0.2 7.6
2017-Mar-24 05:33N 53°31' E 008°35'2 2.8
2017-Mar-24 05:00N 53°30' E 008°36'2 3.6 050 / 41030.1 2.6-0.0 7.6
2017-Mar-24 04:33N 53°31' E 008°35'2 2.7
2017-Mar-24 04:00N 53°30' E 008°36'2 3.6 040 / 41029.2 2.6 0.2 7.6
2017-Mar-24 03:33N 53°31' E 008°35'2 2.7
2017-Mar-24 03:00N 53°30' E 008°36'2 3.6 050 / 41028.7 3.0 0.4 7.6
2017-Mar-24 02:33N 53°31' E 008°35'2 2.7
2017-Mar-24 02:00N 53°30' E 008°36'2 3.6 060 / 41028.5 3.1 0.6 7.8
2017-Mar-24 01:33N 53°31' E 008°35'2 2.7
2017-Mar-24 01:00N 53°30' E 008°36'2 3.5 060 / 41027.9 3.0 0.6 7.9
2017-Mar-24 00:33N 53°31' E 008°35'2 2.8
2017-Mar-24 00:00N 53°30' E 008°36'2 3.5 060 / 61027.0 3.8 0.9 7.9
2017-Mar-23 23:33N 53°31' E 008°35'2 2.8
2017-Mar-23 23:00N 53°30' E 008°36'2 3.5 060 / 81026.7 4.3 1.0 7.8
2017-Mar-23 22:33N 53°31' E 008°35'2 2.8
2017-Mar-23 22:00N 53°30' E 008°36'2 3.6 060 / 81026.4 5.1 0.6 7.7
2017-Mar-23 21:33N 53°31' E 008°35'2 2.7
2017-Mar-23 21:00N 53°30' E 008°36'2 3.6 050 / 41025.8 5.9 0.6 7.6
2017-Mar-23 20:33N 53°31' E 008°35'2 2.7
2017-Mar-23 20:00N 53°30' E 008°36'2 3.6 060 / 61025.0 6.4 0.5 7.6
2017-Mar-23 19:33N 53°31' E 008°35'2 2.7
2017-Mar-23 19:00N 53°30' E 008°36'2 3.5 070 / 81024.0 7.5 1.0 7.5
2017-Mar-23 18:33N 53°31' E 008°35'2 2.8
2017-Mar-23 18:00N 53°30' E 008°36'2 3.5 100 / 81023.2 7.7 0.7 7.6
2017-Mar-23 17:33N 53°31' E 008°35'2 2.8
2017-Mar-23 17:00N 53°30' E 008°36'2 3.5 080 / 121022.0 8.1 1.6 7.7
2017-Mar-23 16:33N 53°31' E 008°35'2 2.8
2017-Mar-23 16:00N 53°30' E 008°36'2 3.5 070 / 101021.3 8.4 3.1 7.7
2017-Mar-23 15:33N 53°31' E 008°35'2 2.8
2017-Mar-23 15:00N 53°30' E 008°36'2 3.6 080 / 101021.1 8.8 3.4 7.8
2017-Mar-23 14:33N 53°31' E 008°35'2 2.7
2017-Mar-23 14:00N 53°30' E 008°36'2 3.6 080 / 121021.0 8.4 2.8 7.8
2017-Mar-23 13:33N 53°31' E 008°35'2 2.7
2017-Mar-23 13:00N 53°30' E 008°36'2 3.6 080 / 101020.9 8.4 3.1 7.8
2017-Mar-23 12:33N 53°31' E 008°35'2 2.7
2017-Mar-23 12:00N 53°30' E 008°36'2 3.6 080 / 121020.5 8.5 2.5 7.8
2017-Mar-23 11:33N 53°31' E 008°35'2 2.7
2017-Mar-23 11:00N 53°30' E 008°36'2 3.5 080 / 101020.4 7.7 2.0 7.8
2017-Mar-23 10:33N 53°31' E 008°35'2 2.8
2017-Mar-23 10:00N 53°30' E 008°36'2 3.6 100 / 121020.3 7.2 1.2 7.7
2017-Mar-23 09:33N 53°31' E 008°35'2 2.7
2017-Mar-23 09:00N 53°30' E 008°36'2 3.6 080 / 81020.3 6.6 1.1 7.8
2017-Mar-23 08:33N 53°31' E 008°35'2 2.7
2017-Mar-23 08:00N 53°30' E 008°36'2 3.5 060 / 61019.7 5.4-0.0 7.8
2017-Mar-23 07:33N 53°31' E 008°35'2 2.8
2017-Mar-23 07:00N 53°30' E 008°36'2 3.6 060 / 61019.2 4.3-0.9 7.8
2017-Mar-23 06:33N 53°31' E 008°35'2 2.7
2017-Mar-23 06:00N 53°30' E 008°36'2 3.6 070 / 61018.7 3.6-1.0 7.8
2017-Mar-23 05:33N 53°31' E 008°35'2 2.7
2017-Mar-23 05:00N 53°30' E 008°36'2 3.5 060 / 61018.7 3.5-1.6 8.0
2017-Mar-23 04:33N 53°31' E 008°35'2 2.8
2017-Mar-23 04:00N 53°30' E 008°36'2 3.5 070 / 81018.6 3.8-2.0 8.0
2017-Mar-23 03:33N 53°31' E 008°35'2 2.8
2017-Mar-23 03:00N 53°30' E 008°36'2 3.5 080 / 61018.6 4.0-2.5 8.1
2017-Mar-23 02:33N 53°31' E 008°35'2 2.8
2017-Mar-23 02:00N 53°30' E 008°36'2 3.5 090 / 61018.2 4.5-2.6 8.0
2017-Mar-23 01:33N 53°31' E 008°35'2 2.8
2017-Mar-23 01:00N 53°30' E 008°36'2 3.5 090 / 61018.3 4.7-2.7 8.0
2017-Mar-23 00:33N 53°31' E 008°35'2 2.8
2017-Mar-23 00:00N 53°30' E 008°36'2 3.6 090 / 61018.5 5.2-2.9 8.0
2017-Mar-22 23:33N 53°31' E 008°35'2 2.7
2017-Mar-22 23:00N 53°30' E 008°36'2 3.5 090 / 61018.5 5.9-2.5 7.9
2017-Mar-22 22:33N 53°31' E 008°35'2 2.8
2017-Mar-22 22:00N 53°30' E 008°36'2 3.5 100 / 61018.2 6.1-2.3 7.9
2017-Mar-22 21:33N 53°31' E 008°35'2 2.8
2017-Mar-22 21:00N 53°30' E 008°36'2 3.5 090 / 61017.8 6.7-2.7 7.8
2017-Mar-22 20:33N 53°31' E 008°35'2 2.8
2017-Mar-22 20:00N 53°30' E 008°36'2 3.5 090 / 61017.5 7.5-3.7 7.7
2017-Mar-22 19:33N 53°31' E 008°35'2 2.8
2017-Mar-22 19:00N 53°30' E 008°36'2 3.5 100 / 41017.3 9.0-4.7 7.6
2017-Mar-22 18:33N 53°31' E 008°35'2 2.8
2017-Mar-22 18:00N 53°30' E 008°36'2 3.6 110 / 61016.6 10.2-4.9 7.6
2017-Mar-22 17:33N 53°31' E 008°35'2 2.7
2017-Mar-22 17:00N 53°30' E 008°36'2 3.5 140 / 81016.2 11.3-6.5 7.6
2017-Mar-22 16:33N 53°31' E 008°35'2 2.8
2017-Mar-22 16:00N 53°30' E 008°36'2 3.5 140 / 61016.0 11.5-7.1 7.6
2017-Mar-22 15:33N 53°31' E 008°35'2 2.8
2017-Mar-22 15:00N 53°30' E 008°36'2 3.5 160 / 61016.1 11.7-6.6 7.5
2017-Mar-22 14:33N 53°31' E 008°35'2 2.7
2017-Mar-22 14:00N 53°30' E 008°36'2 3.5 140 / 81016.1 11.5-5.7 7.6
2017-Mar-22 13:33N 53°31' E 008°35'2 2.8
2017-Mar-22 13:00N 53°30' E 008°36'2 3.6 200 / 61016.3 11.1-5.0 7.6
2017-Mar-22 12:33N 53°31' E 008°35'2 2.7
2017-Mar-22 12:00N 53°30' E 008°36'2 3.6 200 / 101016.5 10.0-3.0 7.6
2017-Mar-22 11:33N 53°31' E 008°35'2 2.7
2017-Mar-22 11:00N 53°30' E 008°36'2 3.5 200 / 81016.5 9.7-0.6 7.5
2017-Mar-22 10:33N 53°31' E 008°35'2 2.8
2017-Mar-22 10:00N 53°30' E 008°36'2 3.5 200 / 101016.4 8.3-0.3 7.5
2017-Mar-22 09:33N 53°31' E 008°35'2 2.8
2017-Mar-22 09:00N 53°30' E 008°36'2 3.5 190 / 61016.1 6.7 0.4 7.4
2017-Mar-22 08:33N 53°31' E 008°35'2 2.8
2017-Mar-22 08:00N 53°30' E 008°36'2 3.5 180 / 61015.6 4.8-0.9 7.5
2017-Mar-22 07:33N 53°31' E 008°35'2 2.8
2017-Mar-22 07:00N 53°30' E 008°36'2 3.6 190 / 61015.0 3.0-0.7 7.7
2017-Mar-22 06:33N 53°31' E 008°35'2 2.7
2017-Mar-22 06:00N 53°30' E 008°36'2 3.5 190 / 41014.8 1.9-0.9 7.8
2017-Mar-22 05:33N 53°31' E 008°35'2 2.8
2017-Mar-22 05:00N 53°30' E 008°36'2 3.6 190 / 61014.2 2.0-0.9 7.8
2017-Mar-22 04:33N 53°31' E 008°35'2 2.7
2017-Mar-22 04:00N 53°30' E 008°36'2 3.5 190 / 61013.7 2.1-0.6 7.9
2017-Mar-22 03:33N 53°31' E 008°35'2 2.8
2017-Mar-22 03:00N 53°30' E 008°36'2 3.6 200 / 81013.5 2.5-0.6 7.9
2017-Mar-22 02:33N 53°31' E 008°35'2 2.7
2017-Mar-22 02:00N 53°30' E 008°36'2 3.6 200 / 81013.2 2.7-0.6 7.9
2017-Mar-22 01:33N 53°31' E 008°35'2 2.7
2017-Mar-22 01:00N 53°30' E 008°36'2 3.6 190 / 61013.3 3.0-0.4 7.8
2017-Mar-22 00:33N 53°31' E 008°35'2 2.7
2017-Mar-22 00:00N 53°30' E 008°36'2 3.5 210 / 61012.9 3.5-0.3 7.8
2017-Mar-21 23:33N 53°31' E 008°35'2 2.8
2017-Mar-21 23:00N 53°30' E 008°36'2 3.5 210 / 61012.6 3.7-0.4 7.8
2017-Mar-21 22:33N 53°31' E 008°35'2 2.8
2017-Mar-21 22:00N 53°30' E 008°36'2 3.5 210 / 81012.3 4.1-0.7 7.6
2017-Mar-21 21:33N 53°31' E 008°35'2 2.8
2017-Mar-21 21:00N 53°30' E 008°36'2 3.6 220 / 81012.0 4.6-0.6 7.5
2017-Mar-21 20:33N 53°31' E 008°35'2 2.7
2017-Mar-21 20:00N 53°30' E 008°36'2 3.6 240 / 61011.4 5.7-0.2 7.7
2017-Mar-21 19:33N 53°31' E 008°35'2 2.7
2017-Mar-21 19:00N 53°30' E 008°36'2 3.6 260 / 101010.9 6.3 0.3 7.5
2017-Mar-21 18:33N 53°31' E 008°35'2 2.7
2017-Mar-21 18:00N 53°30' E 008°36'2 3.6 270 / 121009.7 7.0-0.5 7.5
2017-Mar-21 17:33N 53°31' E 008°35'2 2.7
2017-Mar-21 17:00N 53°30' E 008°36'2 3.5 270 / 141008.9 7.7-1.2 7.5
2017-Mar-21 16:33N 53°31' E 008°35'2 2.8
2017-Mar-21 16:00N 53°30' E 008°36'2 3.5 280 / 141008.3 8.1-1.3 7.5
2017-Mar-21 15:33N 53°31' E 008°35'2 2.8
2017-Mar-21 15:00N 53°30' E 008°36'2 3.5 280 / 171007.5 8.5 0.1 7.4
2017-Mar-21 14:33N 53°31' E 008°35'2 2.8
2017-Mar-21 14:00N 53°30' E 008°36'2 3.6 280 / 191006.9 7.8 1.5 7.4
2017-Mar-21 13:33N 53°31' E 008°35'2 2.8
2017-Mar-21 13:00N 53°30' E 008°36'3 7.5 280 / 291006.1 6.4 2.8 8.0
2017-Mar-21 12:33N 53°33' E 008°33'611.4
2017-Mar-21 12:00N 53°36' E 008°24'3 7.0 270 / 271005.2 8.3 2.2 7.4
2017-Mar-21 11:33N 53°39' E 008°24'1120.3
2017-Mar-21 11:00N 53°48' E 008°12'2 4.6 270 / 251004.3 7.7 4.2 6.8
2017-Mar-21 10:33N 53°46' E 008°10'1017.4
2017-Mar-21 10:00N 53°54' E 008°00'4 8.5 240 / 231003.7 5.7 3.6 5.9
2017-Mar-21 09:33N 53°52' E 007°55'5 8.6
2017-Mar-21 09:00N 53°54' E 007°48'1 2.4 230 / 231002.6 6.9 5.4 5.5
2017-Mar-21 08:23N 53°55' E 007°47'717.3
2017-Mar-21 08:00N 53°54' E 007°36'4 3.5 230 / 211002.3 6.9 5.6 5.5
2017-Mar-21 07:00N 53°54' E 007°30'7 7.0 220 / 211001.9 6.8 5.6 5.5
2017-Mar-21 06:00N 53°48' E 007°24'6 6.0 230 / 191001.7 6.8 5.8 5.6
2017-Mar-21 05:00N 53°54' E 007°24'6 6.0 220 / 191001.6 6.8 5.9 5.5
2017-Mar-21 04:00N 53°48' E 007°24'4 3.5 220 / 171001.6 6.8 5.9 5.6
2017-Mar-21 03:00N 53°48' E 007°18'7 7.1 250 / 171001.6 7.0 5.8 5.9
2017-Mar-21 02:00N 53°48' E 007°06'0 0.0 260 / 191001.6 7.1 6.1 6.2
2017-Mar-21 01:00N 53°48' E 007°06'0 0.0 260 / 211001.2 7.3 6.1 6.2
2017-Mar-21 00:00N 53°48' E 007°06'0 0.0 260 / 211000.9 7.2 6.0 6.2
2017-Mar-20 23:00N 53°48' E 007°06'4 3.5 250 / 211000.6 7.5 6.4 6.1
2017-Mar-20 22:00N 53°48' E 007°12'0 0.0 250 / 191000.4 7.4 6.4 6.0
2017-Mar-20 21:00N 53°48' E 007°12'0 0.0 240 / 19999.8 7.3 6.3 6.0
2017-Mar-20 20:00N 53°48' E 007°12'0 0.0 250 / 21999.4 7.3 6.5 5.9
2017-Mar-20 19:00N 53°48' E 007°12'0 0.0 240 / 37997.7 8.7 7.4 5.9
2017-Mar-20 18:00N 53°48' E 007°12'4 3.5 220 / 33997.4 9.2 8.3 5.8
2017-Mar-20 17:00N 53°48' E 007°18'7 7.1 210 / 31997.7 8.8 8.3 5.8
2017-Mar-20 16:00N 53°48' E 007°06'4 3.5 220 / 27998.9 8.9 8.6 6.2
2017-Mar-20 15:00N 53°48' E 007°00'1312.5 220 / 25998.7 8.5 8.4 6.1
2017-Mar-20 14:00N 54°00' E 007°06'0 0.0 220 / 23999.2 7.9 7.9 5.6
2017-Mar-20 13:00N 54°00' E 007°06'1212.0 220 / 211000.0 7.5 7.6 5.4
2017-Mar-20 12:00N 54°12' E 007°06'7 7.0 220 / 211000.7 7.4 7.4 5.5
2017-Mar-20 11:00N 54°12' E 007°18'7 7.0 220 / 191001.2 7.1 7.1 4.8
2017-Mar-20 10:00N 54°12' E 007°30'4 3.5 210 / 231001.3 7.0 6.9 4.9
2017-Mar-20 09:00N 54°12' E 007°36'6 6.0 230 / 171002.1 6.4 6.5 4.8
2017-Mar-20 08:00N 54°06' E 007°36'1413.9 220 / 171002.2 6.6 6.6 4.8
2017-Mar-20 07:00N 54°18' E 007°48'0 0.0 200 / 141002.1 6.1 6.1 5.1
2017-Mar-20 06:00N 54°18' E 007°48'4 3.5 220 / 141002.7 5.9 5.9 5.2
2017-Mar-20 05:00N 54°18' E 007°54'4 5.5 220 / 141002.5 6.0 6.0 5.1
2017-Mar-20 04:13N 54°14' E 007°58'311.9
2017-Mar-20 04:00N 54°12' E 008°00'4 3.5 230 / 121002.6 5.9 5.9 5.1
2017-Mar-20 03:00N 54°12' E 008°06'1 1.1 230 / 81002.7 5.8 5.8 5.5
2017-Mar-20 02:16N 54°11' E 008°06'1 3.1
2017-Mar-20 02:00N 54°12' E 008°06'1 1.3 260 / 141003.0 6.2 6.2 5.5
2017-Mar-20 01:18N 54°11' E 008°05'1 3.0
2017-Mar-20 01:00N 54°12' E 008°06'2 2.8 280 / 141002.5 6.0 5.9 5.5
2017-Mar-20 00:11N 54°11' E 008°02'1 7.1
2017-Mar-20 00:00N 54°12' E 008°00'0 0.0 280 / 171002.4 6.2 6.3 5.4
2017-Mar-19 23:00N 54°12' E 008°00'0 0.0 270 / 191001.9 6.9 6.9 5.3
2017-Mar-19 22:00N 54°12' E 008°00'0 0.0 270 / 171001.8 6.7 6.7 5.1
2017-Mar-19 21:00N 54°12' E 008°00'6 6.0 270 / 191001.0 6.9 6.9 5.1
2017-Mar-19 20:00N 54°06' E 008°00'1 1.6 250 / 211000.3 6.7 6.6 4.9
2017-Mar-19 19:30N 54°06' E 007°59'611.7
2017-Mar-19 19:00N 54°00' E 008°00'4 9.6 260 / 251000.6 7.0 6.7 4.9
2017-Mar-19 18:33N 53°56' E 007°58'916.6
2017-Mar-19 18:00N 53°48' E 008°06'1 2.8 260 / 291000.1 8.1 7.9 5.5
2017-Mar-19 17:33N 53°49' E 008°08'916.5
2017-Mar-19 17:00N 53°42' E 008°18'2 3.6 250 / 25999.9 8.8 8.6 6.3
2017-Mar-19 16:33N 53°42' E 008°21'814.3
2017-Mar-19 16:00N 53°36' E 008°30'1 2.9 250 / 171000.5 9.4 9.1 6.8
2017-Mar-19 15:33N 53°35' E 008°32'610.3
2017-Mar-19 15:00N 53°30' E 008°36'3 6.6 260 / 161000.9 9.9 9.7 7.3
2017-Mar-19 14:33N 53°33' E 008°34'712.0
2017-Mar-19 14:00N 53°36' E 008°24'3 6.1 260 / 211000.7 9.0 8.6 6.7
2017-Mar-19 13:33N 53°39' E 008°25'5 9.5
2017-Mar-19 13:00N 53°42' E 008°18'2 3.5 270 / 271000.0 9.1 8.2 6.2
2017-Mar-19 12:33N 53°43' E 008°16'813.9
2017-Mar-19 12:00N 53°48' E 008°06'1 3.1 260 / 311000.3 8.6 7.9 5.9
2017-Mar-19 11:33N 53°49' E 008°07'611.5
2017-Mar-19 11:00N 53°54' E 008°00'0 1.1 260 / 251000.3 7.5 7.6 5.3
2017-Mar-19 10:33N 53°54' E 008°01'611.5
2017-Mar-19 10:00N 54°00' E 008°06'2 5.7 170 / 211000.9 6.1 5.9 5.1
2017-Mar-19 09:33N 53°58' E 008°04'2 4.4
2017-Mar-19 09:00N 54°00' E 008°06'2 5.0 150 / 251000.8 4.8 4.8 4.9
2017-Mar-19 08:33N 54°02' E 008°05'5 8.0
2017-Mar-19 08:00N 54°00' E 008°12'3 7.1 140 / 231002.3 4.4 3.8 5.5
2017-Mar-19 07:33N 54°03' E 008°13'1017.8
2017-Mar-19 07:00N 54°12' E 008°06'1 3.0 140 / 231003.5 4.3 3.6 5.4
2017-Mar-19 06:31N 54°11' E 008°07'1 2.6
2017-Mar-19 06:00N 54°12' E 008°06'1 2.9 140 / 171004.9 4.8 4.1 5.3
2017-Mar-19 05:33N 54°11' E 008°06'3 6.2
2017-Mar-19 05:00N 54°12' E 008°12'1 2.6 150 / 121006.1 4.9 3.9 5.3
2017-Mar-19 04:31N 54°11' E 008°10'1 2.3
2017-Mar-19 04:00N 54°12' E 008°12'4 3.5 180 / 101006.8 5.1 4.2 5.3
2017-Mar-19 03:00N 54°12' E 008°18'0 0.0 210 / 81007.2 5.0 4.1 5.5
2017-Mar-19 02:00N 54°12' E 008°18'0 0.0 240 / 61007.9 5.0 3.9 5.5
2017-Mar-19 01:00N 54°12' E 008°18'0 0.0 260 / 61008.2 5.1 3.8 5.5
2017-Mar-19 00:00N 54°12' E 008°18'4 3.5 270 / 81008.2 5.1 3.5 5.5
2017-Mar-18 23:00N 54°12' E 008°12'0 0.0 270 / 101008.3 5.2 3.8 5.5
2017-Mar-18 22:00N 54°12' E 008°12'0 0.0 290 / 81008.2 5.2 3.5 5.5
2017-Mar-18 21:00N 54°12' E 008°12'0 0.0 300 / 101007.8 5.3 2.5 5.4
2017-Mar-18 20:00N 54°12' E 008°12'4 3.5 310 / 121007.3 5.4 2.4 5.5
2017-Mar-18 19:00N 54°12' E 008°18'6 6.0 310 / 141006.7 5.6 2.7 5.5
2017-Mar-18 18:00N 54°18' E 008°18'7 6.9 310 / 161006.0 5.5 2.5 5.3
2017-Mar-18 17:00N 54°24' E 008°12'9 9.2 310 / 161005.0 5.6 2.5 5.1
2017-Mar-18 16:00N 54°30' E 008°00'9 9.2 310 / 191004.4 5.6 2.4 5.1
2017-Mar-18 15:00N 54°36' E 007°48'9 9.2 300 / 191004.3 5.8 2.7 5.1
2017-Mar-18 14:00N 54°30' E 007°36'7 6.9 300 / 211003.8 5.6 2.7 5.3
2017-Mar-18 13:00N 54°36' E 007°42'3 3.5 300 / 211002.1 5.6 3.3 5.1
2017-Mar-18 12:00N 54°36' E 007°48'7 6.9 300 / 251000.8 5.5 2.4 5.1
2017-Mar-18 11:00N 54°42' E 007°54'1010.4 310 / 23999.5 5.4 2.4 5.2
2017-Mar-18 10:00N 54°42' E 008°12'3 3.5 310 / 25997.7 5.2 2.5 5.1
2017-Mar-18 09:00N 54°42' E 008°06'6 6.0 330 / 29997.1 4.6 2.5 5.1
2017-Mar-18 08:00N 54°48' E 008°06'0 0.0 330 / 35994.2 4.3 2.4 5.0
2017-Mar-18 07:00N 54°48' E 008°06'6 6.0 330 / 37990.3 4.6 3.0 5.1
2017-Mar-18 06:00N 54°42' E 008°06'6 6.0 280 / 31989.3 6.3 5.8 5.0
2017-Mar-18 05:00N 54°36' E 008°06'1212.5 270 / 31989.4 6.8 6.7 5.0
2017-Mar-18 04:00N 54°24' E 008°00'1312.5 250 / 27990.9 6.3 6.2 5.0
2017-Mar-18 03:00N 54°12' E 007°54'0 0.0 230 / 27992.7 6.1 5.9 4.9
2017-Mar-18 02:00N 54°12' E 007°54'4 3.5 210 / 23994.5 5.4 5.0 5.0
2017-Mar-18 01:00N 54°12' E 008°00'0 0.0 230 / 25997.1 5.2 4.2 4.9
2017-Mar-18 00:00N 54°12' E 008°00'4 3.5 240 / 29998.9 5.5 4.1 4.9
2017-Mar-17 23:00N 54°12' E 007°54'0 0.0 240 / 271001.3 5.7 4.7 4.9
2017-Mar-17 22:00N 54°12' E 007°54'4 3.5 230 / 291002.6 5.8 4.9 4.9
2017-Mar-17 21:00N 54°12' E 008°00'4 3.5 230 / 251003.8 5.7 4.9 4.9
2017-Mar-17 20:00N 54°12' E 007°54'1312.5 250 / 271005.4 5.5 4.7 4.9
2017-Mar-17 19:00N 54°00' E 008°00'5 7.9 250 / 271006.8 5.6 4.4 4.8
2017-Mar-17 18:22N 53°55' E 007°59'411.6
2017-Mar-17 18:00N 53°54' E 008°06'3010.0 260 / 271007.8 6.1 4.0 5.3
2017-Mar-17 15:00N 53°30' E 008°36'1414.0 280 / 191010.6 7.9 2.0 6.9
2017-Mar-17 14:00N 53°42' E 008°24'7 7.1 280 / 251010.5 6.7 1.7 6.3
2017-Mar-17 13:00N 53°42' E 008°12'6 6.0 260 / 291011.0 6.6 3.3 5.7
2017-Mar-17 12:00N 53°48' E 008°12'6 6.0 260 / 291011.5 6.5 3.0 5.6
2017-Mar-17 11:00N 53°42' E 008°12'7 7.1 270 / 311011.7 6.7 2.8 6.3
2017-Mar-17 10:00N 53°42' E 008°24'1414.0 270 / 251012.1 6.8 2.5 6.9
2017-Mar-17 09:00N 53°30' E 008°36'0 0.0 280 / 121012.6 6.6 2.8 6.6
2017-Mar-17 08:00N 53°30' E 008°36'0 0.0 280 / 121012.7 6.6 3.5 7.0
2017-Mar-17 07:00N 53°30' E 008°36'0 0.0 280 / 101012.2 6.6 3.6 6.9
2017-Mar-17 06:00N 53°30' E 008°36'0 0.0 290 / 101012.0 6.8 3.7 7.0
2017-Mar-17 05:00N 53°30' E 008°36'0 0.0 290 / 81011.2 7.4 5.7 7.0
2017-Mar-17 04:00N 53°30' E 008°36'0 0.0 280 / 101011.3 7.8 6.5 7.0
2017-Mar-17 03:00N 53°30' E 008°36'0 0.0 260 / 101011.4 8.2 6.1 6.9
2017-Mar-17 02:00N 53°30' E 008°36'0 0.0 270 / 101012.0 8.4 6.3 6.9
2017-Mar-17 01:00N 53°30' E 008°36'0 0.0 260 / 81012.5 8.7 6.9 6.9
2017-Mar-17 00:00N 53°30' E 008°36'0 0.0 250 / 81012.9 8.5 4.3 6.8
2017-Mar-16 23:00N 53°30' E 008°36'   220 / 61013.7 8.5 4.7 6.8
Track history (hours):
 
Tides and Currents Weather Stations Pressure Air Temp Water Temp Dewpoint Dewpoint Depression Visibility Wind Speed Wind Dir Waves Ship Positions

Oceanographic research ship Heincke (Germany)

Detailed information on ship capabilities available from University of Delaware's Ocean Information Center and ARCUS's ALIAS (Arctic Logistics Information and Support) project.

Last reported at 2017-Mar-26 22:33 UTC. Time now 2017-Mar-26 22:59 UTC.
Position N 54°53' E 007°01'.

Length 54.6 m; beam 12.5 m; draft 4 m.

Type: Other ship. MMSI: 211208720.

Date/timePositionNaut miles runAvg speedWind from/ knotsBaromVisibWave heightAir tempDewpointWater temp
2017-Mar-26 22:33N 54°53' E 007°01'2 2.9
2017-Mar-26 22:00N 54°54' E 007°00'1 2.8 330 / 41028.1 5.1 4.6 5.6
2017-Mar-26 21:33N 54°53' E 007°01'1 2.1
2017-Mar-26 21:00N 54°54' E 007°00'1 1.3 1028.2 5.6 5.0 5.7
2017-Mar-26 20:33N 54°53' E 006°60'1 1.1
2017-Mar-26 20:00N 54°54' E 007°00'1 2.4 1028.1 5.7 4.9 5.8
2017-Mar-26 19:33N 54°54' E 006°58'2 4.3
2017-Mar-26 19:00N 54°54' E 006°54'2 4.4 350 / 41027.7 5.8 5.2 5.8
2017-Mar-26 18:33N 54°55' E 006°57'2 3.4
2017-Mar-26 18:00N 54°54' E 006°54'2 4.8 1027.5 5.9 5.8 5.9
2017-Mar-26 17:33N 54°56' E 006°56'2 3.7
2017-Mar-26 17:00N 54°54' E 006°54'3 5.9 010 / 41027.4 5.9 5.8 5.9
2017-Mar-26 16:33N 54°56' E 006°55'3 4.5
2017-Mar-26 16:00N 54°54' E 006°54'3 6.7 340 / 41027.5 6.1 6.0 5.8
2017-Mar-26 15:33N 54°57' E 006°55'3 5.2
2017-Mar-26 15:00N 54°54' E 006°54'1 1.1 300 / 41027.9 6.0 5.8 5.8
2017-Mar-26 14:16N 54°54' E 006°53'1 3.0
2017-Mar-26 14:00N 54°54' E 006°54'1 1.5 250 / 61028.2 5.8 5.6 5.7
2017-Mar-26 13:34N 54°54' E 006°53'1 1.1
2017-Mar-26 13:00N 54°54' E 006°54'1 2.8 250 / 41028.2 5.9 5.6 5.9
2017-Mar-26 12:33N 54°55' E 006°52'1 2.3
2017-Mar-26 12:00N 54°54' E 006°54'1 2.4 270 / 21028.3 5.8 5.1 5.7
2017-Mar-26 11:33N 54°55' E 006°53'1 1.9
2017-Mar-26 11:00N 54°54' E 006°54'1 1.6 260 / 21028.2 5.6 5.1 5.7
2017-Mar-26 10:33N 54°54' E 006°53'1 1.2
2017-Mar-26 10:00N 54°54' E 006°54'1 1.5 1028.2 6.1 5.6 5.7
2017-Mar-26 09:33N 54°54' E 006°53'1 1.2
2017-Mar-26 09:00N 54°54' E 006°54'0 1.1 360 / 81028.2 5.4 5.1 5.7
2017-Mar-26 08:33N 54°54' E 006°53'0 0.9
2017-Mar-26 08:00N 54°54' E 006°54'3 6.2 030 / 61027.9 5.5 4.3 5.5
2017-Mar-26 07:30N 54°51' E 006°56'3 6.0
2017-Mar-26 07:00N 54°54' E 006°54'3 7.4 050 / 61027.8 5.4 3.8 5.5
2017-Mar-26 06:33N 54°51' E 006°56'3 5.7
2017-Mar-26 06:00N 54°48' E 006°54'3 6.1 020 / 121027.5 5.4 4.5 5.5
2017-Mar-26 05:33N 54°50' E 006°57'3 4.7
2017-Mar-26 05:00N 54°48' E 006°54'2 3.9 350 / 61027.1 5.6 5.6 5.5
2017-Mar-26 04:33N 54°49' E 006°56'2 3.0
2017-Mar-26 04:00N 54°48' E 006°54'2 4.1 350 / 81027.3 5.8 5.4 5.6
2017-Mar-26 03:33N 54°47' E 006°57'2 3.9
2017-Mar-26 03:00N 54°48' E 007°00'2 3.8 350 / 101027.6 5.9 5.4 5.6
2017-Mar-26 02:33N 54°48' E 006°57'2 3.0
2017-Mar-26 02:00N 54°48' E 007°00'1 2.6 340 / 81027.8 5.9 5.3 5.6
2017-Mar-26 01:32N 54°48' E 006°58'1 2.2
2017-Mar-26 01:00N 54°48' E 007°00'1 1.6 340 / 81027.9 6.0 5.0 5.6
2017-Mar-26 00:29N 54°48' E 006°59'1 1.6
2017-Mar-26 00:00N 54°48' E 007°00'1 1.1 330 / 101028.2 6.1 5.0 5.6
2017-Mar-25 23:32N 54°48' E 006°59'1 1.0
2017-Mar-25 23:00N 54°48' E 007°00'0 1.0 330 / 121028.6 6.3 5.0 5.6
2017-Mar-25 22:33N 54°48' E 006°59'0 0.8
2017-Mar-25 22:00N 54°48' E 007°00'1 1.9 330 / 121028.9 6.2 5.1 5.5
2017-Mar-25 21:33N 54°49' E 006°59'1 1.5
2017-Mar-25 21:00N 54°48' E 007°00'2 3.6 330 / 81029.2 6.1 5.2 5.6
2017-Mar-25 20:33N 54°49' E 006°59'2 2.8
2017-Mar-25 20:00N 54°48' E 007°00'3 5.3 330 / 81029.4 6.2 5.3 5.6
2017-Mar-25 19:28N 54°50' E 006°57'4 8.7
2017-Mar-25 19:00N 54°54' E 006°54'3 7.0 320 / 101029.0 6.2 5.4 5.7
2017-Mar-25 18:33N 54°51' E 006°56'3 5.9
2017-Mar-25 18:00N 54°48' E 006°54'3 7.4 320 / 121029.1 6.3 5.4 5.8
2017-Mar-25 17:33N 54°51' E 006°56'3 5.7
2017-Mar-25 17:00N 54°48' E 006°54'3 7.4 320 / 101029.0 6.2 5.4 5.8
2017-Mar-25 16:33N 54°51' E 006°56'3 5.7
2017-Mar-25 16:00N 54°48' E 006°54'3 7.5 310 / 101029.8 6.2 5.4 5.8
2017-Mar-25 15:33N 54°51' E 006°57'3 6.0
2017-Mar-25 15:00N 54°48' E 007°00'3 6.1 320 / 81030.4 6.1 5.4 5.7
2017-Mar-25 14:33N 54°50' E 006°58'1017.0
2017-Mar-25 14:00N 54°42' E 007°06'2 4.7 320 / 121030.9 6.0 5.1 5.5
2017-Mar-25 13:33N 54°42' E 007°10'813.8
2017-Mar-25 13:00N 54°36' E 007°18'2 5.2 310 / 121031.9 5.9 4.9 5.5
2017-Mar-25 12:33N 54°34' E 007°20'712.4
2017-Mar-25 12:00N 54°30' E 007°30'7 6.9 310 / 121032.3 6.0 4.6 5.7
2017-Mar-25 11:00N 54°24' E 007°36'3 3.5 320 / 121033.0 6.0 4.4 5.7
2017-Mar-25 10:00N 54°24' E 007°30'1 1.0 310 / 121033.2 5.8 4.5 5.4
2017-Mar-25 09:22N 54°24' E 007°29'1 1.7
2017-Mar-25 09:00N 54°24' E 007°30'2 5.1 300 / 141032.7 5.8 4.1 5.5
2017-Mar-25 08:33N 54°23' E 007°33'2 3.4
2017-Mar-25 08:00N 54°24' E 007°36'2 3.8 310 / 121033.0 5.6 4.8 5.5
2017-Mar-25 07:33N 54°23' E 007°34'2 2.9
2017-Mar-25 07:00N 54°24' E 007°36'2 3.6 300 / 101033.0 5.5 4.6 5.6
2017-Mar-25 06:33N 54°23' E 007°37'2 2.9
2017-Mar-25 06:00N 54°24' E 007°36'2 4.8 290 / 101033.0 5.3 4.7 5.6
2017-Mar-25 05:33N 54°22' E 007°37'4 7.1
2017-Mar-25 05:00N 54°18' E 007°36'3 5.8 290 / 101033.2 5.3 4.5 5.6
2017-Mar-25 04:33N 54°21' E 007°36'3 4.7
2017-Mar-25 04:00N 54°18' E 007°36'1 3.2 280 / 81033.4 5.1 4.4 5.5
2017-Mar-25 03:33N 54°19' E 007°35'1 2.4
2017-Mar-25 03:00N 54°18' E 007°36'1 2.7 330 / 61034.2 5.2 4.3 5.5
2017-Mar-25 02:33N 54°19' E 007°35'1 2.1
2017-Mar-25 02:00N 54°18' E 007°36'1 3.3 350 / 81034.5 5.3 4.3 5.6
2017-Mar-25 01:33N 54°19' E 007°36'1 2.6
2017-Mar-25 01:00N 54°18' E 007°36'2 4.3 320 / 81034.7 5.3 4.2 5.7
2017-Mar-25 00:33N 54°20' E 007°38'611.1
2017-Mar-25 00:00N 54°18' E 007°48'2 3.5 350 / 41034.5 5.4 3.7 5.7
2017-Mar-24 23:33N 54°19' E 007°46'5 8.1
2017-Mar-24 23:00N 54°18' E 007°54'1 2.1 340 / 41034.5 5.5 3.5 5.8
2017-Mar-24 22:34N 54°19' E 007°55'3 5.1
2017-Mar-24 22:00N 54°18' E 008°00'1 3.1 350 / 81034.6 5.6 3.3 6.4
2017-Mar-24 21:31N 54°17' E 007°60'5 8.6
2017-Mar-24 21:00N 54°12' E 008°00'1 2.2 350 / 101034.4 5.7 2.9 6.1
2017-Mar-24 20:33N 54°13' E 008°01'1 1.7
2017-Mar-24 20:00N 54°12' E 008°00'4 8.6 360 / 81034.3 6.0 1.3 5.6
2017-Mar-24 19:32N 54°09' E 008°03'3 5.6
2017-Mar-24 19:00N 54°06' E 008°06'1 3.3 010 / 121034.1 5.9 2.2 5.7
2017-Mar-24 18:33N 54°05' E 008°05'5 8.7
2017-Mar-24 18:00N 54°00' E 008°06'3 6.9 010 / 121033.7 6.0 2.4 5.7
2017-Mar-24 17:33N 54°03' E 008°05'3 5.5
2017-Mar-24 17:00N 54°00' E 008°06'7 7.1 010 / 101033.8 6.4 4.1 5.8
2017-Mar-24 16:00N 54°00' E 007°54'3 5.5 010 / 81033.8 6.2 4.4 6.5
2017-Mar-24 15:31N 54°01' E 007°50'1 2.7
2017-Mar-24 15:00N 54°00' E 007°48'1 1.6 010 / 81034.2 6.1 4.3 6.8
2017-Mar-24 14:31N 54°00' E 007°49'1 1.4
2017-Mar-24 14:00N 54°00' E 007°48'5 6.4 360 / 81034.2 6.2 4.6 7.0
2017-Mar-24 13:16N 53°57' E 007°54'517.0
2017-Mar-24 13:00N 53°54' E 008°00'3 6.2 360 / 21033.9 6.0 4.1 6.4
2017-Mar-24 12:33N 53°53' E 008°05'712.4
2017-Mar-24 12:00N 53°48' E 008°12'4 9.3 360 / 41033.6 6.6 4.4 7.1
2017-Mar-24 11:33N 53°44' E 008°15'1221.8
2017-Mar-24 11:00N 53°36' E 008°30'1 1.9 080 / 61032.9 9.3-2.7 7.2
2017-Mar-24 10:33N 53°37' E 008°30'813.7
2017-Mar-24 10:00N 53°30' E 008°36'2 4.7 100 / 81032.3 9.0-1.9 7.4
2017-Mar-24 09:33N 53°32' E 008°35'2 3.6
2017-Mar-24 09:00N 53°30' E 008°36'2 3.6 110 / 61032.3 7.1-0.8 7.4
2017-Mar-24 08:33N 53°31' E 008°35'2 2.7
2017-Mar-24 08:00N 53°30' E 008°36'2 3.6 070 / 61031.8 5.2 0.4 7.4
2017-Mar-24 07:33N 53°31' E 008°35'2 2.7
2017-Mar-24 07:00N 53°30' E 008°36'2 3.5 070 / 41031.3 3.7 0.1 7.4
2017-Mar-24 06:33N 53°31' E 008°35'2 2.8
2017-Mar-24 06:00N 53°30' E 008°36'2 3.5 060 / 41030.9 2.6 0.2 7.6
2017-Mar-24 05:33N 53°31' E 008°35'2 2.8
2017-Mar-24 05:00N 53°30' E 008°36'2 3.6 050 / 41030.1 2.6-0.0 7.6
2017-Mar-24 04:33N 53°31' E 008°35'2 2.7
2017-Mar-24 04:00N 53°30' E 008°36'2 3.6 040 / 41029.2 2.6 0.2 7.6
2017-Mar-24 03:33N 53°31' E 008°35'2 2.7
2017-Mar-24 03:00N 53°30' E 008°36'2 3.6 050 / 41028.7 3.0 0.4 7.6
2017-Mar-24 02:33N 53°31' E 008°35'2 2.7
2017-Mar-24 02:00N 53°30' E 008°36'2 3.6 060 / 41028.5 3.1 0.6 7.8
2017-Mar-24 01:33N 53°31' E 008°35'2 2.7
2017-Mar-24 01:00N 53°30' E 008°36'2 3.5 060 / 41027.9 3.0 0.6 7.9
2017-Mar-24 00:33N 53°31' E 008°35'2 2.8
2017-Mar-24 00:00N 53°30' E 008°36'2 3.5 060 / 61027.0 3.8 0.9 7.9
2017-Mar-23 23:33N 53°31' E 008°35'2 2.8
2017-Mar-23 23:00N 53°30' E 008°36'2 3.5 060 / 81026.7 4.3 1.0 7.8
2017-Mar-23 22:33N 53°31' E 008°35'2 2.8
2017-Mar-23 22:00N 53°30' E 008°36'2 3.6 060 / 81026.4 5.1 0.6 7.7
2017-Mar-23 21:33N 53°31' E 008°35'2 2.7
2017-Mar-23 21:00N 53°30' E 008°36'2 3.6 050 / 41025.8 5.9 0.6 7.6
2017-Mar-23 20:33N 53°31' E 008°35'2 2.7
2017-Mar-23 20:00N 53°30' E 008°36'2 3.6 060 / 61025.0 6.4 0.5 7.6
2017-Mar-23 19:33N 53°31' E 008°35'2 2.7
2017-Mar-23 19:00N 53°30' E 008°36'2 3.5 070 / 81024.0 7.5 1.0 7.5
2017-Mar-23 18:33N 53°31' E 008°35'2 2.8
2017-Mar-23 18:00N 53°30' E 008°36'2 3.5 100 / 81023.2 7.7 0.7 7.6
2017-Mar-23 17:33N 53°31' E 008°35'2 2.8
2017-Mar-23 17:00N 53°30' E 008°36'2 3.5 080 / 121022.0 8.1 1.6 7.7
2017-Mar-23 16:33N 53°31' E 008°35'2 2.8
2017-Mar-23 16:00N 53°30' E 008°36'2 3.5 070 / 101021.3 8.4 3.1 7.7
2017-Mar-23 15:33N 53°31' E 008°35'2 2.8
2017-Mar-23 15:00N 53°30' E 008°36'2 3.6 080 / 101021.1 8.8 3.4 7.8
2017-Mar-23 14:33N 53°31' E 008°35'2 2.7
2017-Mar-23 14:00N 53°30' E 008°36'2 3.6 080 / 121021.0 8.4 2.8 7.8
2017-Mar-23 13:33N 53°31' E 008°35'2 2.7
2017-Mar-23 13:00N 53°30' E 008°36'2 3.6 080 / 101020.9 8.4 3.1 7.8
2017-Mar-23 12:33N 53°31' E 008°35'2 2.7
2017-Mar-23 12:00N 53°30' E 008°36'2 3.6 080 / 121020.5 8.5 2.5 7.8
2017-Mar-23 11:33N 53°31' E 008°35'2 2.7
2017-Mar-23 11:00N 53°30' E 008°36'2 3.5 080 / 101020.4 7.7 2.0 7.8
2017-Mar-23 10:33N 53°31' E 008°35'2 2.8
2017-Mar-23 10:00N 53°30' E 008°36'2 3.6 100 / 121020.3 7.2 1.2 7.7
2017-Mar-23 09:33N 53°31' E 008°35'2 2.7
2017-Mar-23 09:00N 53°30' E 008°36'2 3.6 080 / 81020.3 6.6 1.1 7.8
2017-Mar-23 08:33N 53°31' E 008°35'2 2.7
2017-Mar-23 08:00N 53°30' E 008°36'2 3.5 060 / 61019.7 5.4-0.0 7.8
2017-Mar-23 07:33N 53°31' E 008°35'2 2.8
2017-Mar-23 07:00N 53°30' E 008°36'2 3.6 060 / 61019.2 4.3-0.9 7.8
2017-Mar-23 06:33N 53°31' E 008°35'2 2.7
2017-Mar-23 06:00N 53°30' E 008°36'2 3.6 070 / 61018.7 3.6-1.0 7.8
2017-Mar-23 05:33N 53°31' E 008°35'2 2.7
2017-Mar-23 05:00N 53°30' E 008°36'2 3.5 060 / 61018.7 3.5-1.6 8.0
2017-Mar-23 04:33N 53°31' E 008°35'2 2.8
2017-Mar-23 04:00N 53°30' E 008°36'2 3.5 070 / 81018.6 3.8-2.0 8.0
2017-Mar-23 03:33N 53°31' E 008°35'2 2.8
2017-Mar-23 03:00N 53°30' E 008°36'2 3.5 080 / 61018.6 4.0-2.5 8.1
2017-Mar-23 02:33N 53°31' E 008°35'2 2.8
2017-Mar-23 02:00N 53°30' E 008°36'2 3.5 090 / 61018.2 4.5-2.6 8.0
2017-Mar-23 01:33N 53°31' E 008°35'2 2.8
2017-Mar-23 01:00N 53°30' E 008°36'2 3.5 090 / 61018.3 4.7-2.7 8.0
2017-Mar-23 00:33N 53°31' E 008°35'2 2.8
2017-Mar-23 00:00N 53°30' E 008°36'2 3.6 090 / 61018.5 5.2-2.9 8.0
2017-Mar-22 23:33N 53°31' E 008°35'2 2.7
2017-Mar-22 23:00N 53°30' E 008°36'2 3.5 090 / 61018.5 5.9-2.5 7.9
2017-Mar-22 22:33N 53°31' E 008°35'2 2.8
2017-Mar-22 22:00N 53°30' E 008°36'2 3.5 100 / 61018.2 6.1-2.3 7.9
2017-Mar-22 21:33N 53°31' E 008°35'2 2.8
2017-Mar-22 21:00N 53°30' E 008°36'2 3.5 090 / 61017.8 6.7-2.7 7.8
2017-Mar-22 20:33N 53°31' E 008°35'2 2.8
2017-Mar-22 20:00N 53°30' E 008°36'2 3.5 090 / 61017.5 7.5-3.7 7.7
2017-Mar-22 19:33N 53°31' E 008°35'2 2.8
2017-Mar-22 19:00N 53°30' E 008°36'2 3.5 100 / 41017.3 9.0-4.7 7.6
2017-Mar-22 18:33N 53°31' E 008°35'2 2.8
2017-Mar-22 18:00N 53°30' E 008°36'2 3.6 110 / 61016.6 10.2-4.9 7.6
2017-Mar-22 17:33N 53°31' E 008°35'2 2.7
2017-Mar-22 17:00N 53°30' E 008°36'2 3.5 140 / 81016.2 11.3-6.5 7.6
2017-Mar-22 16:33N 53°31' E 008°35'2 2.8
2017-Mar-22 16:00N 53°30' E 008°36'2 3.5 140 / 61016.0 11.5-7.1 7.6
2017-Mar-22 15:33N 53°31' E 008°35'2 2.8
2017-Mar-22 15:00N 53°30' E 008°36'2 3.5 160 / 61016.1 11.7-6.6 7.5
2017-Mar-22 14:33N 53°31' E 008°35'2 2.7
2017-Mar-22 14:00N 53°30' E 008°36'2 3.5 140 / 81016.1 11.5-5.7 7.6
2017-Mar-22 13:33N 53°31' E 008°35'2 2.8
2017-Mar-22 13:00N 53°30' E 008°36'2 3.6 200 / 61016.3 11.1-5.0 7.6
2017-Mar-22 12:33N 53°31' E 008°35'2 2.7
2017-Mar-22 12:00N 53°30' E 008°36'2 3.6 200 / 101016.5 10.0-3.0 7.6
2017-Mar-22 11:33N 53°31' E 008°35'2 2.7
2017-Mar-22 11:00N 53°30' E 008°36'2 3.5 200 / 81016.5 9.7-0.6 7.5
2017-Mar-22 10:33N 53°31' E 008°35'2 2.8
2017-Mar-22 10:00N 53°30' E 008°36'2 3.5 200 / 101016.4 8.3-0.3 7.5
2017-Mar-22 09:33N 53°31' E 008°35'2 2.8
2017-Mar-22 09:00N 53°30' E 008°36'2 3.5 190 / 61016.1 6.7 0.4 7.4
2017-Mar-22 08:33N 53°31' E 008°35'2 2.8
2017-Mar-22 08:00N 53°30' E 008°36'2 3.5 180 / 61015.6 4.8-0.9 7.5
2017-Mar-22 07:33N 53°31' E 008°35'2 2.8
2017-Mar-22 07:00N 53°30' E 008°36'2 3.6 190 / 61015.0 3.0-0.7 7.7
2017-Mar-22 06:33N 53°31' E 008°35'2 2.7
2017-Mar-22 06:00N 53°30' E 008°36'2 3.5 190 / 41014.8 1.9-0.9 7.8
2017-Mar-22 05:33N 53°31' E 008°35'2 2.8
2017-Mar-22 05:00N 53°30' E 008°36'2 3.6 190 / 61014.2 2.0-0.9 7.8
2017-Mar-22 04:33N 53°31' E 008°35'2 2.7
2017-Mar-22 04:00N 53°30' E 008°36'2 3.5 190 / 61013.7 2.1-0.6 7.9
2017-Mar-22 03:33N 53°31' E 008°35'2 2.8
2017-Mar-22 03:00N 53°30' E 008°36'2 3.6 200 / 81013.5 2.5-0.6 7.9
2017-Mar-22 02:33N 53°31' E 008°35'2 2.7
2017-Mar-22 02:00N 53°30' E 008°36'2 3.6 200 / 81013.2 2.7-0.6 7.9
2017-Mar-22 01:33N 53°31' E 008°35'2 2.7
2017-Mar-22 01:00N 53°30' E 008°36'2 3.6 190 / 61013.3 3.0-0.4 7.8
2017-Mar-22 00:33N 53°31' E 008°35'2 2.7
2017-Mar-22 00:00N 53°30' E 008°36'2 3.5 210 / 61012.9 3.5-0.3 7.8
2017-Mar-21 23:33N 53°31' E 008°35'2 2.8
2017-Mar-21 23:00N 53°30' E 008°36'2 3.5 210 / 61012.6 3.7-0.4 7.8
2017-Mar-21 22:33N 53°31' E 008°35'2 2.8
2017-Mar-21 22:00N 53°30' E 008°36'2 3.5 210 / 81012.3 4.1-0.7 7.6
2017-Mar-21 21:33N 53°31' E 008°35'2 2.8
2017-Mar-21 21:00N 53°30' E 008°36'2 3.6 220 / 81012.0 4.6-0.6 7.5
2017-Mar-21 20:33N 53°31' E 008°35'2 2.7
2017-Mar-21 20:00N 53°30' E 008°36'2 3.6 240 / 61011.4 5.7-0.2 7.7
2017-Mar-21 19:33N 53°31' E 008°35'2 2.7
2017-Mar-21 19:00N 53°30' E 008°36'2 3.6 260 / 101010.9 6.3 0.3 7.5
2017-Mar-21 18:33N 53°31' E 008°35'2 2.7
2017-Mar-21 18:00N 53°30' E 008°36'2 3.6 270 / 121009.7 7.0-0.5 7.5
2017-Mar-21 17:33N 53°31' E 008°35'2 2.7
2017-Mar-21 17:00N 53°30' E 008°36'2 3.5 270 / 141008.9 7.7-1.2 7.5
2017-Mar-21 16:33N 53°31' E 008°35'2 2.8
2017-Mar-21 16:00N 53°30' E 008°36'2 3.5 280 / 141008.3 8.1-1.3 7.5
2017-Mar-21 15:33N 53°31' E 008°35'2 2.8
2017-Mar-21 15:00N 53°30' E 008°36'2 3.5 280 / 171007.5 8.5 0.1 7.4
2017-Mar-21 14:33N 53°31' E 008°35'2 2.8
2017-Mar-21 14:00N 53°30' E 008°36'2 3.6 280 / 191006.9 7.8 1.5 7.4
2017-Mar-21 13:33N 53°31' E 008°35'2 2.8
2017-Mar-21 13:00N 53°30' E 008°36'3 7.5 280 / 291006.1 6.4 2.8 8.0
2017-Mar-21 12:33N 53°33' E 008°33'611.4
2017-Mar-21 12:00N 53°36' E 008°24'3 7.0 270 / 271005.2 8.3 2.2 7.4
2017-Mar-21 11:33N 53°39' E 008°24'1120.3
2017-Mar-21 11:00N 53°48' E 008°12'2 4.6 270 / 251004.3 7.7 4.2 6.8
2017-Mar-21 10:33N 53°46' E 008°10'1017.4
2017-Mar-21 10:00N 53°54' E 008°00'4 8.5 240 / 231003.7 5.7 3.6 5.9
2017-Mar-21 09:33N 53°52' E 007°55'5 8.6
2017-Mar-21 09:00N 53°54' E 007°48'1 2.4 230 / 231002.6 6.9 5.4 5.5
2017-Mar-21 08:23N 53°55' E 007°47'717.3
2017-Mar-21 08:00N 53°54' E 007°36'4 3.5 230 / 211002.3 6.9 5.6 5.5
2017-Mar-21 07:00N 53°54' E 007°30'7 7.0 220 / 211001.9 6.8 5.6 5.5
2017-Mar-21 06:00N 53°48' E 007°24'6 6.0 230 / 191001.7 6.8 5.8 5.6
2017-Mar-21 05:00N 53°54' E 007°24'6 6.0 220 / 191001.6 6.8 5.9 5.5
2017-Mar-21 04:00N 53°48' E 007°24'4 3.5 220 / 171001.6 6.8 5.9 5.6
2017-Mar-21 03:00N 53°48' E 007°18'7 7.1 250 / 171001.6 7.0 5.8 5.9
2017-Mar-21 02:00N 53°48' E 007°06'0 0.0 260 / 191001.6 7.1 6.1 6.2
2017-Mar-21 01:00N 53°48' E 007°06'0 0.0 260 / 211001.2 7.3 6.1 6.2
2017-Mar-21 00:00N 53°48' E 007°06'0 0.0 260 / 211000.9 7.2 6.0 6.2
2017-Mar-20 23:00N 53°48' E 007°06'4 3.5 250 / 211000.6 7.5 6.4 6.1
2017-Mar-20 22:00N 53°48' E 007°12'0 0.0 250 / 191000.4 7.4 6.4 6.0
2017-Mar-20 21:00N 53°48' E 007°12'0 0.0 240 / 19999.8 7.3 6.3 6.0
2017-Mar-20 20:00N 53°48' E 007°12'0 0.0 250 / 21999.4 7.3 6.5 5.9
2017-Mar-20 19:00N 53°48' E 007°12'0 0.0 240 / 37997.7 8.7 7.4 5.9
2017-Mar-20 18:00N 53°48' E 007°12'4 3.5 220 / 33997.4 9.2 8.3 5.8
2017-Mar-20 17:00N 53°48' E 007°18'7 7.1 210 / 31997.7 8.8 8.3 5.8
2017-Mar-20 16:00N 53°48' E 007°06'4 3.5 220 / 27998.9 8.9 8.6 6.2
2017-Mar-20 15:00N 53°48' E 007°00'1312.5 220 / 25998.7 8.5 8.4 6.1
2017-Mar-20 14:00N 54°00' E 007°06'0 0.0 220 / 23999.2 7.9 7.9 5.6
2017-Mar-20 13:00N 54°00' E 007°06'1212.0 220 / 211000.0 7.5 7.6 5.4
2017-Mar-20 12:00N 54°12' E 007°06'7 7.0 220 / 211000.7 7.4 7.4 5.5
2017-Mar-20 11:00N 54°12' E 007°18'7 7.0 220 / 191001.2 7.1 7.1 4.8
2017-Mar-20 10:00N 54°12' E 007°30'4 3.5 210 / 231001.3 7.0 6.9 4.9
2017-Mar-20 09:00N 54°12' E 007°36'6 6.0 230 / 171002.1 6.4 6.5 4.8
2017-Mar-20 08:00N 54°06' E 007°36'1413.9 220 / 171002.2 6.6 6.6 4.8
2017-Mar-20 07:00N 54°18' E 007°48'0 0.0 200 / 141002.1 6.1 6.1 5.1
2017-Mar-20 06:00N 54°18' E 007°48'4 3.5 220 / 141002.7 5.9 5.9 5.2
2017-Mar-20 05:00N 54°18' E 007°54'4 5.5 220 / 141002.5 6.0 6.0 5.1
2017-Mar-20 04:13N 54°14' E 007°58'311.9
2017-Mar-20 04:00N 54°12' E 008°00'4 3.5 230 / 121002.6 5.9 5.9 5.1
2017-Mar-20 03:00N 54°12' E 008°06'1 1.1 230 / 81002.7 5.8 5.8 5.5
2017-Mar-20 02:16N 54°11' E 008°06'1 3.1
2017-Mar-20 02:00N 54°12' E 008°06'1 1.3 260 / 141003.0 6.2 6.2 5.5
2017-Mar-20 01:18N 54°11' E 008°05'1 3.0
2017-Mar-20 01:00N 54°12' E 008°06'2 2.8 280 / 141002.5 6.0 5.9 5.5
2017-Mar-20 00:11N 54°11' E 008°02'1 7.1
2017-Mar-20 00:00N 54°12' E 008°00'0 0.0 280 / 171002.4 6.2 6.3 5.4
2017-Mar-19 23:00N 54°12' E 008°00'0 0.0 270 / 191001.9 6.9 6.9 5.3
2017-Mar-19 22:00N 54°12' E 008°00'0 0.0 270 / 171001.8 6.7 6.7 5.1
2017-Mar-19 21:00N 54°12' E 008°00'6 6.0 270 / 191001.0 6.9 6.9 5.1
2017-Mar-19 20:00N 54°06' E 008°00'1 1.6 250 / 211000.3 6.7 6.6 4.9
2017-Mar-19 19:30N 54°06' E 007°59'611.7
2017-Mar-19 19:00N 54°00' E 008°00'4 9.6 260 / 251000.6 7.0 6.7 4.9
2017-Mar-19 18:33N 53°56' E 007°58'916.6
2017-Mar-19 18:00N 53°48' E 008°06'1 2.8 260 / 291000.1 8.1 7.9 5.5
2017-Mar-19 17:33N 53°49' E 008°08'916.5
2017-Mar-19 17:00N 53°42' E 008°18'2 3.6 250 / 25999.9 8.8 8.6 6.3
2017-Mar-19 16:33N 53°42' E 008°21'814.3
2017-Mar-19 16:00N 53°36' E 008°30'1 2.9 250 / 171000.5 9.4 9.1 6.8
2017-Mar-19 15:33N 53°35' E 008°32'610.3
2017-Mar-19 15:00N 53°30' E 008°36'3 6.6 260 / 161000.9 9.9 9.7 7.3
2017-Mar-19 14:33N 53°33' E 008°34'712.0
2017-Mar-19 14:00N 53°36' E 008°24'3 6.1 260 / 211000.7 9.0 8.6 6.7
2017-Mar-19 13:33N 53°39' E 008°25'5 9.5
2017-Mar-19 13:00N 53°42' E 008°18'2 3.5 270 / 271000.0 9.1 8.2 6.2
2017-Mar-19 12:33N 53°43' E 008°16'813.9
2017-Mar-19 12:00N 53°48' E 008°06'1 3.1 260 / 311000.3 8.6 7.9 5.9
2017-Mar-19 11:33N 53°49' E 008°07'611.5
2017-Mar-19 11:00N 53°54' E 008°00'0 1.1 260 / 251000.3 7.5 7.6 5.3
2017-Mar-19 10:33N 53°54' E 008°01'611.5
2017-Mar-19 10:00N 54°00' E 008°06'2 5.7 170 / 211000.9 6.1 5.9 5.1
2017-Mar-19 09:33N 53°58' E 008°04'2 4.4
2017-Mar-19 09:00N 54°00' E 008°06'2 5.0 150 / 251000.8 4.8 4.8 4.9
2017-Mar-19 08:33N 54°02' E 008°05'5 8.0
2017-Mar-19 08:00N 54°00' E 008°12'3 7.1 140 / 231002.3 4.4 3.8 5.5
2017-Mar-19 07:33N 54°03' E 008°13'1017.8
2017-Mar-19 07:00N 54°12' E 008°06'1 3.0 140 / 231003.5 4.3 3.6 5.4
2017-Mar-19 06:31N 54°11' E 008°07'1 2.6
2017-Mar-19 06:00N 54°12' E 008°06'1 2.9 140 / 171004.9 4.8 4.1 5.3
2017-Mar-19 05:33N 54°11' E 008°06'3 6.2
2017-Mar-19 05:00N 54°12' E 008°12'1 2.6 150 / 121006.1 4.9 3.9 5.3
2017-Mar-19 04:31N 54°11' E 008°10'1 2.3
2017-Mar-19 04:00N 54°12' E 008°12'4 3.5 180 / 101006.8 5.1 4.2 5.3
2017-Mar-19 03:00N 54°12' E 008°18'0 0.0 210 / 81007.2 5.0 4.1 5.5
2017-Mar-19 02:00N 54°12' E 008°18'0 0.0 240 / 61007.9 5.0 3.9 5.5
2017-Mar-19 01:00N 54°12' E 008°18'0 0.0 260 / 61008.2 5.1 3.8 5.5
2017-Mar-19 00:00N 54°12' E 008°18'4 3.5 270 / 81008.2 5.1 3.5 5.5
2017-Mar-18 23:00N 54°12' E 008°12'0 0.0 270 / 101008.3 5.2 3.8 5.5
2017-Mar-18 22:00N 54°12' E 008°12'0 0.0 290 / 81008.2 5.2 3.5 5.5
2017-Mar-18 21:00N 54°12' E 008°12'0 0.0 300 / 101007.8 5.3 2.5 5.4
2017-Mar-18 20:00N 54°12' E 008°12'4 3.5 310 / 121007.3 5.4 2.4 5.5
2017-Mar-18 19:00N 54°12' E 008°18'6 6.0 310 / 141006.7 5.6 2.7 5.5
2017-Mar-18 18:00N 54°18' E 008°18'7 6.9 310 / 161006.0 5.5 2.5 5.3
2017-Mar-18 17:00N 54°24' E 008°12'9 9.2 310 / 161005.0 5.6 2.5 5.1
2017-Mar-18 16:00N 54°30' E 008°00'9 9.2 310 / 191004.4 5.6 2.4 5.1
2017-Mar-18 15:00N 54°36' E 007°48'9 9.2 300 / 191004.3 5.8 2.7 5.1
2017-Mar-18 14:00N 54°30' E 007°36'7 6.9 300 / 211003.8 5.6 2.7 5.3
2017-Mar-18 13:00N 54°36' E 007°42'3 3.5 300 / 211002.1 5.6 3.3 5.1
2017-Mar-18 12:00N 54°36' E 007°48'7 6.9 300 / 251000.8 5.5 2.4 5.1
2017-Mar-18 11:00N 54°42' E 007°54'1010.4 310 / 23999.5 5.4 2.4 5.2
2017-Mar-18 10:00N 54°42' E 008°12'3 3.5 310 / 25997.7 5.2 2.5 5.1
2017-Mar-18 09:00N 54°42' E 008°06'6 6.0 330 / 29997.1 4.6 2.5 5.1
2017-Mar-18 08:00N 54°48' E 008°06'0 0.0 330 / 35994.2 4.3 2.4 5.0
2017-Mar-18 07:00N 54°48' E 008°06'6 6.0 330 / 37990.3 4.6 3.0 5.1
2017-Mar-18 06:00N 54°42' E 008°06'6 6.0 280 / 31989.3 6.3 5.8 5.0
2017-Mar-18 05:00N 54°36' E 008°06'1212.5 270 / 31989.4 6.8 6.7 5.0
2017-Mar-18 04:00N 54°24' E 008°00'1312.5 250 / 27990.9 6.3 6.2 5.0
2017-Mar-18 03:00N 54°12' E 007°54'0 0.0 230 / 27992.7 6.1 5.9 4.9
2017-Mar-18 02:00N 54°12' E 007°54'4 3.5 210 / 23994.5 5.4 5.0 5.0
2017-Mar-18 01:00N 54°12' E 008°00'0 0.0 230 / 25997.1 5.2 4.2 4.9
2017-Mar-18 00:00N 54°12' E 008°00'4 3.5 240 / 29998.9 5.5 4.1 4.9
2017-Mar-17 23:00N 54°12' E 007°54'0 0.0 240 / 271001.3 5.7 4.7 4.9
2017-Mar-17 22:00N 54°12' E 007°54'4 3.5 230 / 291002.6 5.8 4.9 4.9
2017-Mar-17 21:00N 54°12' E 008°00'4 3.5 230 / 251003.8 5.7 4.9 4.9
2017-Mar-17 20:00N 54°12' E 007°54'1312.5 250 / 271005.4 5.5 4.7 4.9
2017-Mar-17 19:00N 54°00' E 008°00'5 7.9 250 / 271006.8 5.6 4.4 4.8
2017-Mar-17 18:22N 53°55' E 007°59'411.6
2017-Mar-17 18:00N 53°54' E 008°06'3010.0 260 / 271007.8 6.1 4.0 5.3
2017-Mar-17 15:00N 53°30' E 008°36'1414.0 280 / 191010.6 7.9 2.0 6.9
2017-Mar-17 14:00N 53°42' E 008°24'7 7.1 280 / 251010.5 6.7 1.7 6.3
2017-Mar-17 13:00N 53°42' E 008°12'6 6.0 260 / 291011.0 6.6 3.3 5.7
2017-Mar-17 12:00N 53°48' E 008°12'6 6.0 260 / 291011.5 6.5 3.0 5.6
2017-Mar-17 11:00N 53°42' E 008°12'7 7.1 270 / 311011.7 6.7 2.8 6.3
2017-Mar-17 10:00N 53°42' E 008°24'1414.0 270 / 251012.1 6.8 2.5 6.9
2017-Mar-17 09:00N 53°30' E 008°36'0 0.0 280 / 121012.6 6.6 2.8 6.6
2017-Mar-17 08:00N 53°30' E 008°36'0 0.0 280 / 121012.7 6.6 3.5 7.0
2017-Mar-17 07:00N 53°30' E 008°36'0 0.0 280 / 101012.2 6.6 3.6 6.9
2017-Mar-17 06:00N 53°30' E 008°36'0 0.0 290 / 101012.0 6.8 3.7 7.0
2017-Mar-17 05:00N 53°30' E 008°36'0 0.0 290 / 81011.2 7.4 5.7 7.0
2017-Mar-17 04:00N 53°30' E 008°36'0 0.0 280 / 101011.3 7.8 6.5 7.0
2017-Mar-17 03:00N 53°30' E 008°36'0 0.0 260 / 101011.4 8.2 6.1 6.9
2017-Mar-17 02:00N 53°30' E 008°36'0 0.0 270 / 101012.0 8.4 6.3 6.9
2017-Mar-17 01:00N 53°30' E 008°36'0 0.0 260 / 81012.5 8.7 6.9 6.9
2017-Mar-17 00:00N 53°30' E 008°36'0 0.0 250 / 81012.9 8.5 4.3 6.8
2017-Mar-16 23:00N 53°30' E 008°36'   220 / 61013.7 8.5 4.7 6.8

Dump ship's entire track history